KTTN

Trenton Mercer Airport

Trenton, New Jersey, USA
KTTN 182153Z 1822/1918 31011KT P6SM FEW040 FM190000 32005KT P6SM SKC FM190300 VRB02KT P6SM SKC FM191500 25005KT P6SM SKC
Issued Valid From Valid To
Dec-18 @ 21:53 UTC
(an hour ago)
Dec-18 @ 22:00 UTC
(an hour ago)
Dec-19 @ 18:00 UTC
(in 19 hours)
Dec-18 @ 22:00 to Dec-19 @ 00:00
KTTN 182153Z 1822/1918 31011KT P6SM FEW040
Wind Visibility Clouds
310° at 11 knots Greater than 6 miles
  • Few at 4,000' AGL
From Dec-19 @ 00:00 to Dec-19 @ 03:00
FM190000 32005KT P6SM SKC
Wind Visibility Clouds
320° at 5 knots Greater than 6 miles
  • Clear skies
From Dec-19 @ 03:00 to Dec-19 @ 15:00
FM190300 VRB02KT P6SM SKC
Wind Visibility Clouds
Variable at 2 knots Greater than 6 miles
  • Clear skies
From Dec-19 @ 15:00 to Dec-19 @ 18:00
FM191500 25005KT P6SM SKC
Wind Visibility Clouds
250° at 5 knots Greater than 6 miles
  • Clear skies
KTTN 182153Z 1822/1918 31011KT P6SM FEW040 FM190000 32005KT P6SM SKC FM190300 VRB02KT P6SM SKC FM191500 25005KT P6SM SKC
Issued Dec-18 @ 21:53 UTC
(an hour ago)
Valid From Dec-18 @ 22:00 UTC
(an hour ago)
Valid To Dec-19 @ 18:00 UTC
(in 19 hours)
Dec-18 @ 22:00 - Dec-19 @ 00:00
Wind Visibility
310° at 11 knots Greater than 6 miles
Clouds
  • Few at 4,000' AGL
From Dec-19 @ 00:00 - Dec-19 @ 03:00
Wind Visibility
320° at 5 knots Greater than 6 miles
Clouds
  • Clear skies
From Dec-19 @ 03:00 - Dec-19 @ 15:00
Wind Visibility
Variable at 2 knots Greater than 6 miles
Clouds
  • Clear skies
From Dec-19 @ 15:00 - Dec-19 @ 18:00
Wind Visibility
250° at 5 knots Greater than 6 miles
Clouds
  • Clear skies